Venango, Pennsylvania
Current Conditions -  °F | °C
As of 6:53 PM on Sunday 25 Jan 2015 (Local Time) from KGKJ Reporting Station
Overcast Overcast  
Wind Chill: 11°   Ceiling: 5000
Heat Index: 22°   Visibility: 10mi
Dew Point: 16°   Wind: 10mph
Humidity: 78%   Direction: 30°NNE
Pressure: 29.83"   Gusts: NA
Location:  41.77°N, 80.11°W
Report Text: KGKJ 252353Z AUTO 03009KT 10SM BKN050 OVC065 M06/M09 A2983 RMK AO2 SLP121 T10561089 11039 21056 52010 TSNO
Loading
Personal Weather Stations






























Interactive Weather Map New forecast layout! Learn more

10-Day Weather Forecast

Advertisements
Track Severe Weather on mobile